sensor_id;sensor_type;location;lat;lon;timestamp;P1;durP1;ratioP1;P2;durP2;ratioP2
71116;SDS011;58775;46.992;9.518;2023-03-20T00:01:52;0.70;;;0.20;;
71116;SDS011;58775;46.992;9.518;2023-03-20T00:03:53;1.08;;;0.40;;
71116;SDS011;58775;46.992;9.518;2023-03-20T00:05:55;1.15;;;0.30;;
71116;SDS011;58775;46.992;9.518;2023-03-20T00:07:56;4.07;;;0.30;;
71116;SDS011;58775;46.992;9.518;2023-03-20T00:09:58;0.90;;;0.20;;
71116;SDS011;58775;46.992;9.518;2023-03-20T00:11:59;0.52;;;0.17;;
71116;SDS011;58775;46.992;9.518;2023-03-20T00:14:05;0.95;;;0.20;;
71116;SDS011;58775;46.992;9.518;2023-03-20T00:16:12;1.23;;;0.30;;
71116;SDS011;58775;46.992;9.518;2023-03-20T00:18:14;0.70;;;0.28;;
71116;SDS011;58775;46.992;9.518;2023-03-20T00:20:17;1.03;;;0.30;;
71116;SDS011;58775;46.992;9.518;2023-03-20T00:22:19;2.45;;;0.30;;
71116;SDS011;58775;46.992;9.518;2023-03-20T00:24:22;1.17;;;0.38;;
71116;SDS011;58775;46.992;9.518;2023-03-20T00:26:24;1.10;;;0.50;;
71116;SDS011;58775;46.992;9.518;2023-03-20T00:30:49;1.43;;;0.30;;
71116;SDS011;58775;46.992;9.518;2023-03-20T00:32:51;0.90;;;0.30;;
71116;SDS011;58775;46.992;9.518;2023-03-20T00:34:52;1.23;;;0.40;;
71116;SDS011;58775;46.992;9.518;2023-03-20T00:36:54;2.58;;;0.47;;
71116;SDS011;58775;46.992;9.518;2023-03-20T00:38:55;2.22;;;0.50;;
71116;SDS011;58775;46.992;9.518;2023-03-20T00:41:01;1.70;;;0.20;;
71116;SDS011;58775;46.992;9.518;2023-03-20T00:43:03;2.25;;;0.30;;
71116;SDS011;58775;46.992;9.518;2023-03-20T00:45:04;1.40;;;0.40;;
71116;SDS011;58775;46.992;9.518;2023-03-20T00:47:12;0.77;;;0.20;;
71116;SDS011;58775;46.992;9.518;2023-03-20T00:49:30;2.50;;;0.20;;
71116;SDS011;58775;46.992;9.518;2023-03-20T00:51:33;1.03;;;0.20;;
71116;SDS011;58775;46.992;9.518;2023-03-20T00:53:35;2.25;;;0.35;;
71116;SDS011;58775;46.992;9.518;2023-03-20T00:55:37;0.28;;;0.10;;
71116;SDS011;58775;46.992;9.518;2023-03-20T00:57:43;0.50;;;0.20;;
71116;SDS011;58775;46.992;9.518;2023-03-20T01:02:01;0.43;;;0.27;;
71116;SDS011;58775;46.992;9.518;2023-03-20T01:04:05;0.47;;;0.20;;
71116;SDS011;58775;46.992;9.518;2023-03-20T01:06:13;0.25;;;0.10;;
71116;SDS011;58775;46.992;9.518;2023-03-20T01:08:19;0.90;;;0.20;;
71116;SDS011;58775;46.992;9.518;2023-03-20T01:10:27;0.50;;;0.20;;
71116;SDS011;58775;46.992;9.518;2023-03-20T01:12:31;1.77;;;0.30;;
71116;SDS011;58775;46.992;9.518;2023-03-20T01:14:33;0.65;;;0.13;;
71116;SDS011;58775;46.992;9.518;2023-03-20T01:16:35;0.28;;;0.20;;
71116;SDS011;58775;46.992;9.518;2023-03-20T01:18:36;2.97;;;0.30;;
71116;SDS011;58775;46.992;9.518;2023-03-20T01:20:38;1.45;;;0.30;;
71116;SDS011;58775;46.992;9.518;2023-03-20T01:22:39;0.98;;;0.22;;
71116;SDS011;58775;46.992;9.518;2023-03-20T01:24:40;1.33;;;0.28;;
71116;SDS011;58775;46.992;9.518;2023-03-20T01:26:42;1.33;;;0.32;;
71116;SDS011;58775;46.992;9.518;2023-03-20T01:28:44;1.92;;;0.30;;
71116;SDS011;58775;46.992;9.518;2023-03-20T01:30:46;0.75;;;0.30;;
71116;SDS011;58775;46.992;9.518;2023-03-20T01:32:48;1.35;;;0.30;;
71116;SDS011;58775;46.992;9.518;2023-03-20T01:34:50;0.80;;;0.20;;
71116;SDS011;58775;46.992;9.518;2023-03-20T01:36:53;1.52;;;0.20;;
71116;SDS011;58775;46.992;9.518;2023-03-20T01:38:56;0.80;;;0.30;;
71116;SDS011;58775;46.992;9.518;2023-03-20T01:41:14;1.52;;;0.30;;
71116;SDS011;58775;46.992;9.518;2023-03-20T01:43:18;0.55;;;0.30;;
71116;SDS011;58775;46.992;9.518;2023-03-20T01:45:25;1.08;;;0.40;;
71116;SDS011;58775;46.992;9.518;2023-03-20T01:47:32;0.43;;;0.20;;
71116;SDS011;58775;46.992;9.518;2023-03-20T01:52:14;1.38;;;0.40;;
71116;SDS011;58775;46.992;9.518;2023-03-20T01:54:36;1.67;;;0.55;;
71116;SDS011;58775;46.992;9.518;2023-03-20T01:56:49;1.58;;;0.30;;
71116;SDS011;58775;46.992;9.518;2023-03-20T01:59:13;0.90;;;0.30;;
71116;SDS011;58775;46.992;9.518;2023-03-20T02:01:22;1.05;;;0.30;;
71116;SDS011;58775;46.992;9.518;2023-03-20T02:03:24;0.38;;;0.20;;
71116;SDS011;58775;46.992;9.518;2023-03-20T02:05:58;0.85;;;0.30;;
71116;SDS011;58775;46.992;9.518;2023-03-20T02:08:17;2.47;;;0.30;;
71116;SDS011;58775;46.992;9.518;2023-03-20T02:10:23;0.73;;;0.30;;
71116;SDS011;58775;46.992;9.518;2023-03-20T02:12:35;2.72;;;0.40;;
71116;SDS011;58775;46.992;9.518;2023-03-20T02:14:39;2.13;;;0.55;;
71116;SDS011;58775;46.992;9.518;2023-03-20T02:16:54;1.83;;;0.32;;
71116;SDS011;58775;46.992;9.518;2023-03-20T02:19:36;1.20;;;0.40;;
71116;SDS011;58775;46.992;9.518;2023-03-20T02:21:54;1.20;;;0.30;;
71116;SDS011;58775;46.992;9.518;2023-03-20T02:26:49;1.20;;;0.32;;
71116;SDS011;58775;46.992;9.518;2023-03-20T02:31:53;2.33;;;0.65;;
71116;SDS011;58775;46.992;9.518;2023-03-20T02:36:52;1.60;;;0.43;;
71116;SDS011;58775;46.992;9.518;2023-03-20T02:48:52;2.22;;;0.75;;
71116;SDS011;58775;46.992;9.518;2023-03-20T02:58:06;2.50;;;0.60;;
71116;SDS011;58775;46.992;9.518;2023-03-20T03:02:19;3.67;;;0.70;;
71116;SDS011;58775;46.992;9.518;2023-03-20T03:04:31;1.95;;;0.40;;
71116;SDS011;58775;46.992;9.518;2023-03-20T03:06:37;2.33;;;0.50;;
71116;SDS011;58775;46.992;9.518;2023-03-20T03:08:46;3.60;;;0.65;;
71116;SDS011;58775;46.992;9.518;2023-03-20T03:10:53;2.45;;;0.50;;
71116;SDS011;58775;46.992;9.518;2023-03-20T03:12:59;1.33;;;0.47;;
71116;SDS011;58775;46.992;9.518;2023-03-20T03:15:12;2.50;;;0.40;;
71116;SDS011;58775;46.992;9.518;2023-03-20T03:17:25;1.58;;;0.50;;
71116;SDS011;58775;46.992;9.518;2023-03-20T03:19:29;3.25;;;0.60;;
71116;SDS011;58775;46.992;9.518;2023-03-20T03:21:32;1.95;;;0.50;;
71116;SDS011;58775;46.992;9.518;2023-03-20T03:23:41;2.13;;;0.50;;
71116;SDS011;58775;46.992;9.518;2023-03-20T03:25:46;3.17;;;0.73;;
71116;SDS011;58775;46.992;9.518;2023-03-20T03:27:51;2.03;;;0.60;;
71116;SDS011;58775;46.992;9.518;2023-03-20T03:30:29;1.52;;;0.60;;
71116;SDS011;58775;46.992;9.518;2023-03-20T03:32:36;2.90;;;0.70;;
71116;SDS011;58775;46.992;9.518;2023-03-20T03:34:45;3.50;;;0.70;;
71116;SDS011;58775;46.992;9.518;2023-03-20T03:37:03;1.25;;;0.40;;
71116;SDS011;58775;46.992;9.518;2023-03-20T03:46:59;4.45;;;0.65;;
71116;SDS011;58775;46.992;9.518;2023-03-20T03:48:46;2.83;;;0.60;;
71116;SDS011;58775;46.992;9.518;2023-03-20T03:50:52;1.80;;;0.52;;
71116;SDS011;58775;46.992;9.518;2023-03-20T03:53:00;2.33;;;0.50;;
71116;SDS011;58775;46.992;9.518;2023-03-20T03:55:07;2.95;;;0.68;;
71116;SDS011;58775;46.992;9.518;2023-03-20T03:57:36;2.67;;;0.57;;
71116;SDS011;58775;46.992;9.518;2023-03-20T03:59:49;2.38;;;0.52;;
71116;SDS011;58775;46.992;9.518;2023-03-20T04:01:51;1.48;;;0.50;;
71116;SDS011;58775;46.992;9.518;2023-03-20T04:03:55;1.52;;;0.45;;
71116;SDS011;58775;46.992;9.518;2023-03-20T04:06:00;1.55;;;0.40;;
71116;SDS011;58775;46.992;9.518;2023-03-20T04:08:04;1.58;;;0.43;;
71116;SDS011;58775;46.992;9.518;2023-03-20T04:10:06;1.83;;;0.55;;
71116;SDS011;58775;46.992;9.518;2023-03-20T04:12:25;2.47;;;0.80;;
71116;SDS011;58775;46.992;9.518;2023-03-20T04:14:35;1.48;;;0.45;;
71116;SDS011;58775;46.992;9.518;2023-03-20T04:16:36;2.38;;;0.90;;
71116;SDS011;58775;46.992;9.518;2023-03-20T04:18:37;2.13;;;0.70;;
71116;SDS011;58775;46.992;9.518;2023-03-20T04:20:39;1.75;;;0.60;;
71116;SDS011;58775;46.992;9.518;2023-03-20T04:22:41;3.75;;;0.80;;
71116;SDS011;58775;46.992;9.518;2023-03-20T04:24:47;1.90;;;0.70;;
71116;SDS011;58775;46.992;9.518;2023-03-20T04:26:48;2.15;;;0.70;;
71116;SDS011;58775;46.992;9.518;2023-03-20T04:28:50;2.00;;;0.60;;
71116;SDS011;58775;46.992;9.518;2023-03-20T04:31:08;2.08;;;0.75;;
71116;SDS011;58775;46.992;9.518;2023-03-20T04:33:36;2.10;;;0.65;;
71116;SDS011;58775;46.992;9.518;2023-03-20T04:35:47;2.95;;;0.68;;
71116;SDS011;58775;46.992;9.518;2023-03-20T04:37:50;4.07;;;0.60;;
71116;SDS011;58775;46.992;9.518;2023-03-20T04:39:52;2.70;;;0.88;;
71116;SDS011;58775;46.992;9.518;2023-03-20T04:41:53;1.42;;;0.50;;
71116;SDS011;58775;46.992;9.518;2023-03-20T04:43:55;2.75;;;0.60;;
71116;SDS011;58775;46.992;9.518;2023-03-20T04:45:57;2.22;;;0.50;;
71116;SDS011;58775;46.992;9.518;2023-03-20T04:47:58;2.60;;;0.70;;
71116;SDS011;58775;46.992;9.518;2023-03-20T04:50:01;3.60;;;0.63;;
71116;SDS011;58775;46.992;9.518;2023-03-20T04:52:04;4.97;;;0.63;;
71116;SDS011;58775;46.992;9.518;2023-03-20T04:54:11;3.60;;;0.60;;
71116;SDS011;58775;46.992;9.518;2023-03-20T04:56:13;0.95;;;0.40;;
71116;SDS011;58775;46.992;9.518;2023-03-20T04:58:15;2.17;;;0.50;;
71116;SDS011;58775;46.992;9.518;2023-03-20T05:00:16;1.98;;;0.57;;
71116;SDS011;58775;46.992;9.518;2023-03-20T05:02:18;3.33;;;0.68;;
71116;SDS011;58775;46.992;9.518;2023-03-20T05:04:20;5.07;;;0.70;;
71116;SDS011;58775;46.992;9.518;2023-03-20T05:06:21;2.47;;;0.75;;
71116;SDS011;58775;46.992;9.518;2023-03-20T05:08:22;2.50;;;0.52;;
71116;SDS011;58775;46.992;9.518;2023-03-20T05:10:28;3.42;;;0.80;;
71116;SDS011;58775;46.992;9.518;2023-03-20T05:12:38;3.30;;;0.50;;
71116;SDS011;58775;46.992;9.518;2023-03-20T05:14:59;2.17;;;0.50;;
71116;SDS011;58775;46.992;9.518;2023-03-20T05:17:26;2.65;;;0.70;;
71116;SDS011;58775;46.992;9.518;2023-03-20T05:19:57;2.60;;;0.70;;
71116;SDS011;58775;46.992;9.518;2023-03-20T05:22:25;1.77;;;0.75;;
71116;SDS011;58775;46.992;9.518;2023-03-20T05:24:55;2.50;;;0.70;;
71116;SDS011;58775;46.992;9.518;2023-03-20T05:27:14;2.45;;;0.70;;
71116;SDS011;58775;46.992;9.518;2023-03-20T05:29:22;2.05;;;0.75;;
71116;SDS011;58775;46.992;9.518;2023-03-20T05:31:50;1.77;;;0.80;;
71116;SDS011;58775;46.992;9.518;2023-03-20T05:34:03;1.38;;;0.70;;
71116;SDS011;58775;46.992;9.518;2023-03-20T05:36:15;2.45;;;0.90;;
71116;SDS011;58775;46.992;9.518;2023-03-20T05:38:25;2.80;;;0.85;;
71116;SDS011;58775;46.992;9.518;2023-03-20T05:40:46;3.33;;;0.80;;
71116;SDS011;58775;46.992;9.518;2023-03-20T05:43:01;2.08;;;0.80;;
71116;SDS011;58775;46.992;9.518;2023-03-20T05:45:02;2.33;;;0.83;;
71116;SDS011;58775;46.992;9.518;2023-03-20T05:47:22;3.72;;;1.00;;
71116;SDS011;58775;46.992;9.518;2023-03-20T05:49:30;2.35;;;0.90;;
71116;SDS011;58775;46.992;9.518;2023-03-20T05:51:55;2.17;;;0.70;;
71116;SDS011;58775;46.992;9.518;2023-03-20T05:54:20;3.25;;;1.00;;
71116;SDS011;58775;46.992;9.518;2023-03-20T05:56:35;2.27;;;0.83;;
71116;SDS011;58775;46.992;9.518;2023-03-20T05:59:00;2.38;;;0.90;;
71116;SDS011;58775;46.992;9.518;2023-03-20T06:01:28;3.55;;;1.05;;
71116;SDS011;58775;46.992;9.518;2023-03-20T06:03:55;3.15;;;0.88;;
71116;SDS011;58775;46.992;9.518;2023-03-20T06:06:16;3.67;;;1.00;;
71116;SDS011;58775;46.992;9.518;2023-03-20T06:08:22;2.73;;;0.90;;
71116;SDS011;58775;46.992;9.518;2023-03-20T06:10:23;3.35;;;0.90;;
71116;SDS011;58775;46.992;9.518;2023-03-20T06:12:25;2.53;;;0.82;;
71116;SDS011;58775;46.992;9.518;2023-03-20T06:14:29;1.95;;;0.63;;
71116;SDS011;58775;46.992;9.518;2023-03-20T06:16:35;4.35;;;0.90;;
71116;SDS011;58775;46.992;9.518;2023-03-20T06:18:36;2.60;;;0.87;;
71116;SDS011;58775;46.992;9.518;2023-03-20T06:20:38;3.60;;;1.00;;
71116;SDS011;58775;46.992;9.518;2023-03-20T06:22:42;2.47;;;0.90;;
71116;SDS011;58775;46.992;9.518;2023-03-20T06:24:45;3.03;;;0.73;;
71116;SDS011;58775;46.992;9.518;2023-03-20T06:26:46;2.72;;;0.90;;
71116;SDS011;58775;46.992;9.518;2023-03-20T06:28:48;4.23;;;1.00;;
71116;SDS011;58775;46.992;9.518;2023-03-20T06:30:52;3.35;;;1.02;;
71116;SDS011;58775;46.992;9.518;2023-03-20T06:32:54;4.10;;;1.00;;
71116;SDS011;58775;46.992;9.518;2023-03-20T06:34:59;3.65;;;0.80;;
71116;SDS011;58775;46.992;9.518;2023-03-20T06:37:00;2.72;;;0.80;;
71116;SDS011;58775;46.992;9.518;2023-03-20T06:39:02;3.13;;;1.10;;
71116;SDS011;58775;46.992;9.518;2023-03-20T06:41:04;2.45;;;0.80;;
71116;SDS011;58775;46.992;9.518;2023-03-20T06:43:07;2.35;;;0.80;;
71116;SDS011;58775;46.992;9.518;2023-03-20T06:45:18;3.25;;;0.90;;
71116;SDS011;58775;46.992;9.518;2023-03-20T06:47:26;5.32;;;0.90;;
71116;SDS011;58775;46.992;9.518;2023-03-20T06:49:27;2.77;;;0.80;;
71116;SDS011;58775;46.992;9.518;2023-03-20T06:51:29;2.20;;;0.63;;
71116;SDS011;58775;46.992;9.518;2023-03-20T06:53:30;2.15;;;0.80;;
71116;SDS011;58775;46.992;9.518;2023-03-20T06:55:39;1.92;;;0.70;;
71116;SDS011;58775;46.992;9.518;2023-03-20T06:57:40;2.60;;;0.80;;
71116;SDS011;58775;46.992;9.518;2023-03-20T06:59:41;2.43;;;0.90;;
71116;SDS011;58775;46.992;9.518;2023-03-20T07:01:42;3.20;;;0.80;;
71116;SDS011;58775;46.992;9.518;2023-03-20T07:03:44;1.92;;;0.70;;
71116;SDS011;58775;46.992;9.518;2023-03-20T07:05:46;1.88;;;0.70;;
71116;SDS011;58775;46.992;9.518;2023-03-20T07:07:48;2.55;;;0.80;;
71116;SDS011;58775;46.992;9.518;2023-03-20T07:09:49;3.10;;;0.83;;
71116;SDS011;58775;46.992;9.518;2023-03-20T07:11:50;2.30;;;0.70;;
71116;SDS011;58775;46.992;9.518;2023-03-20T07:13:53;1.65;;;0.60;;
71116;SDS011;58775;46.992;9.518;2023-03-20T07:16:09;2.33;;;1.00;;
71116;SDS011;58775;46.992;9.518;2023-03-20T07:18:14;2.00;;;0.70;;
71116;SDS011;58775;46.992;9.518;2023-03-20T07:20:16;2.97;;;0.53;;
71116;SDS011;58775;46.992;9.518;2023-03-20T07:22:21;1.90;;;0.77;;
71116;SDS011;58775;46.992;9.518;2023-03-20T07:24:28;1.92;;;0.65;;
71116;SDS011;58775;46.992;9.518;2023-03-20T07:26:32;5.45;;;0.70;;
71116;SDS011;58775;46.992;9.518;2023-03-20T07:28:33;1.83;;;0.70;;
71116;SDS011;58775;46.992;9.518;2023-03-20T07:30:50;2.23;;;0.70;;
71116;SDS011;58775;46.992;9.518;2023-03-20T07:32:51;3.03;;;0.75;;
71116;SDS011;58775;46.992;9.518;2023-03-20T07:34:53;2.35;;;0.70;;
71116;SDS011;58775;46.992;9.518;2023-03-20T07:36:55;1.70;;;0.50;;
71116;SDS011;58775;46.992;9.518;2023-03-20T07:38:59;1.70;;;0.60;;
71116;SDS011;58775;46.992;9.518;2023-03-20T07:41:03;3.10;;;0.70;;
71116;SDS011;58775;46.992;9.518;2023-03-20T07:43:09;2.40;;;0.73;;
71116;SDS011;58775;46.992;9.518;2023-03-20T07:45:31;1.63;;;0.68;;
71116;SDS011;58775;46.992;9.518;2023-03-20T07:47:35;1.67;;;0.60;;
71116;SDS011;58775;46.992;9.518;2023-03-20T07:49:38;1.50;;;0.60;;
71116;SDS011;58775;46.992;9.518;2023-03-20T07:51:41;1.37;;;0.50;;
71116;SDS011;58775;46.992;9.518;2023-03-20T07:53:43;1.80;;;0.60;;
71116;SDS011;58775;46.992;9.518;2023-03-20T07:55:45;1.23;;;0.60;;
71116;SDS011;58775;46.992;9.518;2023-03-20T07:57:55;2.65;;;0.90;;
71116;SDS011;58775;46.992;9.518;2023-03-20T07:59:56;2.55;;;0.70;;
71116;SDS011;58775;46.992;9.518;2023-03-20T08:01:57;3.30;;;0.60;;
71116;SDS011;58775;46.992;9.518;2023-03-20T08:04:01;1.58;;;0.57;;
71116;SDS011;58775;46.992;9.518;2023-03-20T08:06:13;2.47;;;0.70;;
71116;SDS011;58775;46.992;9.518;2023-03-20T08:08:17;2.58;;;0.60;;
71116;SDS011;58775;46.992;9.518;2023-03-20T08:10:21;4.05;;;0.73;;
71116;SDS011;58775;46.992;9.518;2023-03-20T08:12:23;1.00;;;0.60;;
71116;SDS011;58775;46.992;9.518;2023-03-20T08:14:30;2.63;;;0.60;;
71116;SDS011;58775;46.992;9.518;2023-03-20T08:16:31;4.40;;;1.00;;
71116;SDS011;58775;46.992;9.518;2023-03-20T08:18:32;4.38;;;0.80;;
71116;SDS011;58775;46.992;9.518;2023-03-20T08:20:38;3.33;;;0.73;;
71116;SDS011;58775;46.992;9.518;2023-03-20T08:22:39;1.13;;;0.60;;
71116;SDS011;58775;46.992;9.518;2023-03-20T08:24:42;2.92;;;1.23;;
71116;SDS011;58775;46.992;9.518;2023-03-20T08:26:43;17.88;;;1.23;;
71116;SDS011;58775;46.992;9.518;2023-03-20T08:28:45;5.00;;;1.02;;
71116;SDS011;58775;46.992;9.518;2023-03-20T08:30:46;4.45;;;0.90;;
71116;SDS011;58775;46.992;9.518;2023-03-20T08:32:48;7.17;;;1.70;;
71116;SDS011;58775;46.992;9.518;2023-03-20T08:34:49;3.78;;;1.10;;
71116;SDS011;58775;46.992;9.518;2023-03-20T08:36:50;3.90;;;1.08;;
71116;SDS011;58775;46.992;9.518;2023-03-20T08:38:52;11.45;;;1.90;;
71116;SDS011;58775;46.992;9.518;2023-03-20T08:40:53;3.95;;;1.23;;
71116;SDS011;58775;46.992;9.518;2023-03-20T08:42:55;3.60;;;1.40;;
71116;SDS011;58775;46.992;9.518;2023-03-20T08:44:56;3.80;;;1.20;;
71116;SDS011;58775;46.992;9.518;2023-03-20T08:46:57;2.80;;;1.02;;
71116;SDS011;58775;46.992;9.518;2023-03-20T08:48:58;2.53;;;0.85;;
71116;SDS011;58775;46.992;9.518;2023-03-20T08:51:00;3.33;;;1.17;;
71116;SDS011;58775;46.992;9.518;2023-03-20T08:53:01;2.90;;;1.00;;
71116;SDS011;58775;46.992;9.518;2023-03-20T08:57:50;1.65;;;0.88;;
71116;SDS011;58775;46.992;9.518;2023-03-20T09:00:09;4.97;;;1.17;;
71116;SDS011;58775;46.992;9.518;2023-03-20T09:02:22;2.67;;;1.10;;
71116;SDS011;58775;46.992;9.518;2023-03-20T09:04:23;3.27;;;0.90;;
71116;SDS011;58775;46.992;9.518;2023-03-20T09:09:39;2.83;;;1.20;;
71116;SDS011;58775;46.992;9.518;2023-03-20T09:11:40;2.58;;;1.10;;
71116;SDS011;58775;46.992;9.518;2023-03-20T09:13:41;3.17;;;1.38;;
71116;SDS011;58775;46.992;9.518;2023-03-20T09:15:43;2.73;;;1.10;;
71116;SDS011;58775;46.992;9.518;2023-03-20T09:17:44;2.72;;;1.20;;
71116;SDS011;58775;46.992;9.518;2023-03-20T09:19:46;2.13;;;0.95;;
71116;SDS011;58775;46.992;9.518;2023-03-20T09:21:47;3.10;;;1.20;;
71116;SDS011;58775;46.992;9.518;2023-03-20T09:23:48;3.75;;;1.15;;
71116;SDS011;58775;46.992;9.518;2023-03-20T09:25:49;3.83;;;1.30;;
71116;SDS011;58775;46.992;9.518;2023-03-20T09:27:51;3.20;;;1.13;;
71116;SDS011;58775;46.992;9.518;2023-03-20T09:29:56;3.08;;;1.20;;
71116;SDS011;58775;46.992;9.518;2023-03-20T09:31:58;3.22;;;1.25;;
71116;SDS011;58775;46.992;9.518;2023-03-20T09:33:59;2.53;;;1.20;;
71116;SDS011;58775;46.992;9.518;2023-03-20T09:36:00;3.80;;;1.40;;
71116;SDS011;58775;46.992;9.518;2023-03-20T09:38:02;2.70;;;1.23;;
71116;SDS011;58775;46.992;9.518;2023-03-20T09:40:03;4.32;;;1.65;;
71116;SDS011;58775;46.992;9.518;2023-03-20T09:42:21;4.10;;;1.38;;
71116;SDS011;58775;46.992;9.518;2023-03-20T09:44:44;3.35;;;1.60;;
71116;SDS011;58775;46.992;9.518;2023-03-20T09:46:54;5.00;;;1.73;;
71116;SDS011;58775;46.992;9.518;2023-03-20T09:49:31;4.80;;;1.27;;
71116;SDS011;58775;46.992;9.518;2023-03-20T09:51:55;2.88;;;1.10;;
71116;SDS011;58775;46.992;9.518;2023-03-20T09:54:04;2.70;;;1.08;;
71116;SDS011;58775;46.992;9.518;2023-03-20T09:56:12;4.00;;;1.25;;
71116;SDS011;58775;46.992;9.518;2023-03-20T09:58:19;2.63;;;1.17;;
71116;SDS011;58775;46.992;9.518;2023-03-20T10:00:30;2.33;;;0.88;;
71116;SDS011;58775;46.992;9.518;2023-03-20T10:02:36;2.17;;;0.88;;
71116;SDS011;58775;46.992;9.518;2023-03-20T10:04:52;2.13;;;0.70;;
71116;SDS011;58775;46.992;9.518;2023-03-20T10:06:58;2.08;;;0.70;;
71116;SDS011;58775;46.992;9.518;2023-03-20T10:08:59;2.20;;;0.87;;
71116;SDS011;58775;46.992;9.518;2023-03-20T10:11:05;1.42;;;0.68;;
71116;SDS011;58775;46.992;9.518;2023-03-20T10:15:46;1.77;;;0.73;;
71116;SDS011;58775;46.992;9.518;2023-03-20T10:18:00;1.25;;;0.70;;
71116;SDS011;58775;46.992;9.518;2023-03-20T10:20:29;0.93;;;0.60;;
71116;SDS011;58775;46.992;9.518;2023-03-20T10:22:37;2.22;;;0.80;;
71116;SDS011;58775;46.992;9.518;2023-03-20T10:27:33;0.95;;;0.60;;
71116;SDS011;58775;46.992;9.518;2023-03-20T10:29:53;1.73;;;0.80;;
71116;SDS011;58775;46.992;9.518;2023-03-20T10:32:09;2.67;;;0.70;;
71116;SDS011;58775;46.992;9.518;2023-03-20T10:39:17;1.45;;;0.70;;
71116;SDS011;58775;46.992;9.518;2023-03-20T10:41:34;6.30;;;1.05;;
71116;SDS011;58775;46.992;9.518;2023-03-20T10:43:38;2.53;;;0.80;;
71116;SDS011;58775;46.992;9.518;2023-03-20T10:45:51;2.25;;;0.85;;
71116;SDS011;58775;46.992;9.518;2023-03-20T10:47:59;2.08;;;0.70;;
71116;SDS011;58775;46.992;9.518;2023-03-20T10:52:32;2.15;;;0.90;;
71116;SDS011;58775;46.992;9.518;2023-03-20T10:54:57;2.43;;;0.80;;
71116;SDS011;58775;46.992;9.518;2023-03-20T10:57:03;2.55;;;1.00;;
71116;SDS011;58775;46.992;9.518;2023-03-20T10:59:10;2.60;;;1.00;;
71116;SDS011;58775;46.992;9.518;2023-03-20T11:01:49;1.83;;;0.80;;
71116;SDS011;58775;46.992;9.518;2023-03-20T11:03:50;2.70;;;1.00;;
71116;SDS011;58775;46.992;9.518;2023-03-20T11:05:59;2.17;;;1.00;;
71116;SDS011;58775;46.992;9.518;2023-03-20T11:08:07;1.45;;;0.70;;
71116;SDS011;58775;46.992;9.518;2023-03-20T11:10:13;1.88;;;0.90;;
71116;SDS011;58775;46.992;9.518;2023-03-20T11:12:16;1.77;;;0.90;;
71116;SDS011;58775;46.992;9.518;2023-03-20T11:14:21;2.53;;;1.10;;
71116;SDS011;58775;46.992;9.518;2023-03-20T11:16:29;2.87;;;1.00;;
71116;SDS011;58775;46.992;9.518;2023-03-20T11:18:34;2.13;;;0.93;;
71116;SDS011;58775;46.992;9.518;2023-03-20T11:20:45;2.80;;;1.20;;
71116;SDS011;58775;46.992;9.518;2023-03-20T11:22:57;2.63;;;1.13;;
71116;SDS011;58775;46.992;9.518;2023-03-20T11:25:02;3.47;;;1.00;;
71116;SDS011;58775;46.992;9.518;2023-03-20T11:27:07;4.80;;;1.33;;
71116;SDS011;58775;46.992;9.518;2023-03-20T11:29:18;2.88;;;1.42;;
71116;SDS011;58775;46.992;9.518;2023-03-20T11:31:35;3.53;;;1.05;;
71116;SDS011;58775;46.992;9.518;2023-03-20T11:33:44;4.03;;;1.48;;
71116;SDS011;58775;46.992;9.518;2023-03-20T11:36:01;2.63;;;1.17;;
71116;SDS011;58775;46.992;9.518;2023-03-20T11:38:13;4.90;;;1.60;;
71116;SDS011;58775;46.992;9.518;2023-03-20T11:40:23;3.15;;;1.27;;
71116;SDS011;58775;46.992;9.518;2023-03-20T11:42:30;2.33;;;1.02;;
71116;SDS011;58775;46.992;9.518;2023-03-20T11:44:32;2.50;;;1.30;;
71116;SDS011;58775;46.992;9.518;2023-03-20T11:46:38;2.70;;;1.40;;
71116;SDS011;58775;46.992;9.518;2023-03-20T11:48:41;3.30;;;1.40;;
71116;SDS011;58775;46.992;9.518;2023-03-20T11:50:50;2.40;;;1.20;;
71116;SDS011;58775;46.992;9.518;2023-03-20T11:53:03;2.92;;;1.40;;
71116;SDS011;58775;46.992;9.518;2023-03-20T11:55:37;2.88;;;1.50;;
71116;SDS011;58775;46.992;9.518;2023-03-20T11:57:41;3.15;;;1.50;;
71116;SDS011;58775;46.992;9.518;2023-03-20T11:59:44;3.00;;;1.40;;
71116;SDS011;58775;46.992;9.518;2023-03-20T12:04:05;3.28;;;1.50;;
71116;SDS011;58775;46.992;9.518;2023-03-20T12:06:18;3.45;;;1.50;;
71116;SDS011;58775;46.992;9.518;2023-03-20T12:08:24;2.30;;;1.30;;
71116;SDS011;58775;46.992;9.518;2023-03-20T12:10:33;3.23;;;1.77;;
71116;SDS011;58775;46.992;9.518;2023-03-20T12:12:46;3.58;;;1.60;;
71116;SDS011;58775;46.992;9.518;2023-03-20T12:14:53;4.63;;;1.52;;
71116;SDS011;58775;46.992;9.518;2023-03-20T12:17:05;4.72;;;1.95;;
71116;SDS011;58775;46.992;9.518;2023-03-20T12:19:27;3.60;;;1.55;;
71116;SDS011;58775;46.992;9.518;2023-03-20T12:21:45;8.93;;;1.93;;
71116;SDS011;58775;46.992;9.518;2023-03-20T12:23:56;3.83;;;1.77;;
71116;SDS011;58775;46.992;9.518;2023-03-20T12:28:31;2.03;;;1.10;;
71116;SDS011;58775;46.992;9.518;2023-03-20T12:33:01;2.97;;;1.47;;
71116;SDS011;58775;46.992;9.518;2023-03-20T12:35:15;2.83;;;1.40;;
71116;SDS011;58775;46.992;9.518;2023-03-20T12:37:22;3.50;;;1.67;;
71116;SDS011;58775;46.992;9.518;2023-03-20T12:39:25;3.28;;;1.48;;
71116;SDS011;58775;46.992;9.518;2023-03-20T12:41:38;2.72;;;1.40;;
71116;SDS011;58775;46.992;9.518;2023-03-20T12:46:11;2.58;;;1.30;;
71116;SDS011;58775;46.992;9.518;2023-03-20T12:48:36;3.75;;;1.50;;
71116;SDS011;58775;46.992;9.518;2023-03-20T12:50:40;3.50;;;1.30;;
71116;SDS011;58775;46.992;9.518;2023-03-20T13:01:54;3.05;;;1.30;;
71116;SDS011;58775;46.992;9.518;2023-03-20T13:06:18;6.50;;;1.10;;
71116;SDS011;58775;46.992;9.518;2023-03-20T13:10:53;3.45;;;1.20;;
71116;SDS011;58775;46.992;9.518;2023-03-20T13:13:15;2.22;;;1.15;;
71116;SDS011;58775;46.992;9.518;2023-03-20T13:17:56;2.70;;;1.30;;
71116;SDS011;58775;46.992;9.518;2023-03-20T13:20:17;3.58;;;1.38;;
71116;SDS011;58775;46.992;9.518;2023-03-20T13:22:26;5.10;;;1.50;;
71116;SDS011;58775;46.992;9.518;2023-03-20T13:26:54;3.50;;;1.55;;
71116;SDS011;58775;46.992;9.518;2023-03-20T13:29:27;4.47;;;1.73;;
71116;SDS011;58775;46.992;9.518;2023-03-20T13:32:23;4.95;;;1.58;;
71116;SDS011;58775;46.992;9.518;2023-03-20T13:39:11;3.40;;;1.67;;
71116;SDS011;58775;46.992;9.518;2023-03-20T13:41:14;2.87;;;1.30;;
71116;SDS011;58775;46.992;9.518;2023-03-20T13:45:36;6.05;;;1.25;;
71116;SDS011;58775;46.992;9.518;2023-03-20T13:47:41;3.88;;;1.42;;
71116;SDS011;58775;46.992;9.518;2023-03-20T13:52:37;2.03;;;1.10;;
71116;SDS011;58775;46.992;9.518;2023-03-20T13:57:00;4.55;;;1.20;;
71116;SDS011;58775;46.992;9.518;2023-03-20T13:59:14;3.65;;;1.15;;
71116;SDS011;58775;46.992;9.518;2023-03-20T14:01:34;3.45;;;1.10;;
71116;SDS011;58775;46.992;9.518;2023-03-20T14:03:50;2.80;;;1.10;;
71116;SDS011;58775;46.992;9.518;2023-03-20T14:05:54;2.92;;;1.10;;
71116;SDS011;58775;46.992;9.518;2023-03-20T14:07:56;5.85;;;1.20;;
71116;SDS011;58775;46.992;9.518;2023-03-20T14:10:15;4.22;;;1.20;;
71116;SDS011;58775;46.992;9.518;2023-03-20T14:12:23;2.80;;;1.30;;
71116;SDS011;58775;46.992;9.518;2023-03-20T14:14:26;4.37;;;0.97;;
71116;SDS011;58775;46.992;9.518;2023-03-20T14:16:30;3.35;;;1.20;;
71116;SDS011;58775;46.992;9.518;2023-03-20T14:18:31;4.50;;;1.25;;
71116;SDS011;58775;46.992;9.518;2023-03-20T14:20:36;4.18;;;1.10;;
71116;SDS011;58775;46.992;9.518;2023-03-20T14:22:39;2.55;;;0.90;;
71116;SDS011;58775;46.992;9.518;2023-03-20T14:24:40;2.27;;;0.80;;
71116;SDS011;58775;46.992;9.518;2023-03-20T14:26:52;2.58;;;0.85;;
71116;SDS011;58775;46.992;9.518;2023-03-20T14:31:19;4.10;;;1.10;;
71116;SDS011;58775;46.992;9.518;2023-03-20T14:33:25;2.28;;;0.90;;
71116;SDS011;58775;46.992;9.518;2023-03-20T14:35:30;3.33;;;0.93;;